Eliporto di emergenza

IT-0584 · Apulia, Włochy

Historia METAR IT-0584 · Eliporto di emergenza

Poniżej widzisz METAR-y z ostatnich kilku dni. Wybierz rok, aby przeglądać starsze METAR-y, począwszy od roku 2007.

15 lipca 2024

Czas Kod Pogoda Temp. Widoczność Sufit Wiatr METAR/SPECI
00:50
V
23 °C 10 km+ - 240° 240° 6 kt METAR LIBD 142250Z 24006KT CAVOK 23/18 Q1012
00:20
V
24 °C 10 km+ - 220° 220° 3 kt METAR LIBD 142220Z 22003KT CAVOK 24/18 Q1012

14 lipca 2024

Czas Kod Pogoda Temp. Widoczność Sufit Wiatr METAR/SPECI
23:50
V
24 °C 10 km+ - 230° 230° 3 kt METAR LIBD 142150Z 23003KT CAVOK 24/20 Q1012
23:20
V
26 °C 10 km+ - 270° 270° 2 kt METAR LIBD 142120Z 27002KT CAVOK 26/21 Q1012
22:50
V
26 °C 10 km+ - 270° 270° 4 kt METAR LIBD 142050Z 27004KT CAVOK 26/22 Q1012
22:20
V
26 °C 10 km+ - 270° 270° 3 kt METAR LIBD 142020Z 27003KT CAVOK 26/22 Q1012
21:50
V
26 °C 10 km+ - 280° 280° 2 kt METAR LIBD 141950Z 28002KT CAVOK 26/22 Q1012
21:20
V
27 °C 10 km+ - 300° 300° 3 kt METAR LIBD 141920Z 30003KT CAVOK 27/22 Q1012
20:50
V
28 °C 10 km+ - 280° 280° 3 kt METAR LIBD 141850Z 28003KT CAVOK 28/22 Q1011
20:20
V
29 °C 10 km+ - 290° 290° 3 kt METAR LIBD 141820Z 29003KT 250V330 CAVOK 29/22 Q1011
19:50
V
29 °C 10 km+ - 020° 020° 3 kt METAR LIBD 141750Z 02003KT 340V060 CAVOK 29/22 Q1011
19:20
V
30 °C 10 km+ - Var Var 3 kt METAR LIBD 141720Z VRB03KT CAVOK 30/22 Q1011
18:50
V
30 °C 10 km+ - Var Var 3 kt METAR LIBD 141650Z VRB03KT CAVOK 30/22 Q1011
18:20
V
30 °C 10 km+ - 360° 360° 5 kt METAR LIBD 141620Z 36005KT 300V070 CAVOK 30/24 Q1011
17:50
V
31 °C 10 km+ - 020° 020° 5 kt METAR LIBD 141550Z 02005KT 320V070 CAVOK 31/21 Q1011
17:20
V
31 °C 10 km+ - 340° 340° 6 kt METAR LIBD 141520Z 34006KT 290V040 CAVOK 31/22 Q1011
16:50
V
31 °C 10 km+ - 350° 350° 7 kt METAR LIBD 141450Z 35007KT 300V030 CAVOK 31/23 Q1011
16:20
V
30 °C 10 km+ - 350° 350° 9 kt METAR LIBD 141420Z 35009KT 310V020 CAVOK 30/24 Q1011
15:50
V
30 °C 10 km+ - 360° 360° 9 kt METAR LIBD 141350Z 36009KT 330V030 CAVOK 30/24 Q1011
15:20
V
30 °C 10 km+ - 010° 010° 10 kt METAR LIBD 141320Z 01010KT 340V050 CAVOK 30/24 Q1011
14:50
V
30 °C 10 km+ - 010° 010° 10 kt METAR LIBD 141250Z 01010KT 330V040 CAVOK 30/24 Q1011
14:20
V
30 °C 10 km+ - 360° 360° 10 kt METAR LIBD 141220Z 36010KT 330V030 CAVOK 30/24 Q1011
13:50
V
30 °C 10 km+ - 010° 010° 10 kt METAR LIBD 141150Z 01010KT 330V050 CAVOK 30/25 Q1011
13:20
V
32 °C 10 km+ - 020° 020° 9 kt METAR LIBD 141120Z 02009KT 330V060 CAVOK 32/24 Q1011
12:50
V
32 °C 10 km+ - 010° 010° 10 kt METAR LIBD 141050Z 01010KT 320V050 CAVOK 32/21 Q1011
12:20
V
33 °C 10 km+ - 350° 350° 8 kt METAR LIBD 141020Z 35008KT 320V030 CAVOK 33/21 Q1011
11:50
V
33 °C 10 km+ - 340° 340° 9 kt METAR LIBD 140950Z 34009KT 300V020 CAVOK 33/17 Q1011
11:20
V
32 °C 10 km+ - 350° 350° 9 kt METAR LIBD 140920Z 35009KT 300V020 CAVOK 32/16 Q1011
10:50
V
33 °C 10 km+ - 330° 330° 8 kt METAR LIBD 140850Z 33008KT 300V010 CAVOK 33/15 Q1011
10:20
V
33 °C 10 km+ - 350° 350° 8 kt METAR LIBD 140820Z 35008KT 300V020 CAVOK 33/14 Q1011
09:50
V
33 °C 10 km+ - 350° 350° 8 kt METAR LIBD 140750Z 35008KT 310V020 CAVOK 33/14 Q1011
09:20
V
33 °C 10 km+ - 340° 340° 7 kt METAR LIBD 140720Z 34007KT 320V020 CAVOK 33/15 Q1011
08:50
V
34 °C 10 km+ - 290° 290° 7 kt METAR LIBD 140650Z 29007KT 260V340 CAVOK 34/11 Q1011
08:20
V
33 °C 10 km+ - 300° 300° 8 kt METAR LIBD 140620Z 30008KT 260V330 CAVOK 33/11 Q1011
07:50
V
31 °C 10 km+ - 290° 290° 3 kt METAR LIBD 140550Z 29003KT 260V330 CAVOK 31/11 Q1011
07:20
V
30 °C 10 km+ - 270° 270° 5 kt METAR LIBD 140520Z 27005KT CAVOK 30/11 Q1010
06:50
V
29 °C 10 km+ - 250° 250° 6 kt METAR LIBD 140450Z 25006KT CAVOK 29/11 Q1010
06:20
V
26 °C 10 km+ - Var Var 2 kt METAR LIBD 140420Z VRB02KT CAVOK 26/12 Q1010
05:50
V
26 °C 10 km+ - 220° 220° 4 kt METAR LIBD 140350Z 22004KT CAVOK 26/12 Q1010
05:20
V
25 °C 10 km+ - 210° 210° 5 kt METAR LIBD 140320Z 21005KT CAVOK 25/13 Q1009
04:50
V
25 °C 10 km+ - 210° 210° 6 kt METAR LIBD 140250Z 21006KT CAVOK 25/14 Q1009
04:20
V
26 °C 10 km+ - 210° 210° 4 kt METAR LIBD 140220Z 21004KT CAVOK 26/14 Q1009
03:50
V
26 °C 10 km+ - 210° 210° 6 kt METAR LIBD 140150Z 21006KT CAVOK 26/15 Q1009
03:20
V
26 °C 10 km+ - 210° 210° 5 kt METAR LIBD 140120Z 21005KT CAVOK 26/16 Q1009
02:50
V
27 °C 10 km+ - 190° 190° 3 kt METAR LIBD 140050Z 19003KT CAVOK 27/16 Q1009
02:20
V
27 °C 10 km+ - 200° 200° 2 kt METAR LIBD 140020Z 20002KT CAVOK 27/16 Q1009
01:50
V
28 °C 10 km+ - 200° 200° 3 kt METAR LIBD 132350Z 20003KT CAVOK 28/16 Q1009
01:20
V
28 °C 10 km+ - 220° 220° 5 kt METAR LIBD 132320Z 22005KT CAVOK 28/16 Q1009
00:50
V
29 °C 10 km+ - 220° 220° 4 kt METAR LIBD 132250Z 22004KT CAVOK 29/16 Q1009
00:20
V
29 °C 10 km+ - 230° 230° 6 kt METAR LIBD 132220Z 23006KT CAVOK 29/15 Q1009

13 lipca 2024

Czas Kod Pogoda Temp. Widoczność Sufit Wiatr METAR/SPECI
23:50
V
31 °C 10 km+ - 210° 210° 7 kt METAR LIBD 132150Z 21007KT CAVOK 31/16 Q1009
23:20
V
31 °C 10 km+ - 220° 220° 6 kt METAR LIBD 132120Z 22006KT CAVOK 31/16 Q1009
22:50
V
31 °C 10 km+ - 210° 210° 6 kt METAR LIBD 132050Z 21006KT CAVOK 31/16 Q1009
22:20
V
32 °C 10 km+ - 200° 200° 5 kt METAR LIBD 132020Z 20005KT CAVOK 32/16 Q1009
21:50
V
33 °C 10 km+ - 180° 180° 3 kt METAR LIBD 131950Z 18003KT 150V220 CAVOK 33/16 Q1009
21:20
V
34 °C 10 km+ - 170° 170° 4 kt METAR LIBD 131920Z 17004KT 120V190 CAVOK 34/16 Q1009
20:50
V
35 °C 10 km+ - 150° 150° 6 kt METAR LIBD 131850Z 15006KT CAVOK 35/16 Q1009
20:20
V
35 °C 10 km+ - 120° 120° 6 kt METAR LIBD 131820Z 12006KT 090V150 CAVOK 35/17 Q1008
19:50
V
34 °C 10 km+ - 090° 090° 7 kt METAR LIBD 131750Z 09007KT CAVOK 34/20 Q1008
19:20
V
34 °C 10 km+ - 080° 080° 10 kt METAR LIBD 131720Z 08010KT CAVOK 34/19 Q1008
18:50
V
33 °C 10 km+ - 080° 080° 11 kt METAR LIBD 131650Z 08011KT CAVOK 33/21 Q1008
18:20
V
31 °C 10 km+ - 070° 070° 12 kt METAR LIBD 131620Z 07012KT CAVOK 31/22 Q1008
17:50
V
32 °C 10 km+ - 070° 070° 12 kt METAR LIBD 131550Z 07012KT CAVOK 32/22 Q1008
17:20
V
32 °C 10 km+ - 070° 070° 11 kt METAR LIBD 131520Z 07011KT CAVOK 32/23 Q1008
16:50
V
32 °C 10 km+ - 070° 070° 14 kt METAR LIBD 131450Z 07014KT CAVOK 32/21 Q1008
16:20
V
33 °C 10 km+ - 070° 070° 12 kt METAR LIBD 131420Z 07012KT CAVOK 33/20 Q1008
15:50
V
33 °C 10 km+ - 070° 070° 13 kt METAR LIBD 131350Z 07013KT CAVOK 33/20 Q1009
15:20
V
34 °C 10 km+ - 070° 070° 12 kt METAR LIBD 131320Z 07012KT CAVOK 34/20 Q1009
14:50
V
34 °C 10 km+ - 070° 070° 12 kt METAR LIBD 131250Z 07012KT CAVOK 34/17 Q1009
14:20
V
34 °C 10 km+ - 070° 070° 12 kt METAR LIBD 131220Z 07012KT CAVOK 34/16 Q1009
13:50
V
35 °C 10 km+ - 070° 070° 11 kt METAR LIBD 131150Z 07011KT CAVOK 35/15 Q1009
13:20
V
34 °C 10 km+ - 070° 070° 11 kt METAR LIBD 131120Z 07011KT CAVOK 34/16 Q1009
12:50
V
34 °C 10 km+ - 050° 050° 8 kt METAR LIBD 131050Z 05008KT 010V070 CAVOK 34/16 Q1009
12:20
V
34 °C 10 km+ - 060° 060° 10 kt METAR LIBD 131020Z 06010KT 020V080 CAVOK 34/16 Q1009
11:50
V
34 °C 10 km+ - 070° 070° 10 kt METAR LIBD 130950Z 07010KT CAVOK 34/16 Q1010
11:20
V
34 °C 10 km+ - 060° 060° 8 kt METAR LIBD 130920Z 06008KT 030V090 CAVOK 34/16 Q1010
10:50
V
33 °C 10 km+ - 060° 060° 8 kt METAR LIBD 130850Z 06008KT 020V100 CAVOK 33/17 Q1010
10:20
V
33 °C 10 km+ - 060° 060° 7 kt METAR LIBD 130820Z 06007KT 030V090 CAVOK 33/15 Q1010
09:50
V
33 °C 10 km+ - 060° 060° 7 kt METAR LIBD 130750Z 06007KT 020V090 CAVOK 33/16 Q1010
09:20
V
33 °C 10 km+ - 080° 080° 5 kt METAR LIBD 130720Z 08005KT 050V120 CAVOK 33/15 Q1010
08:50
V
33 °C 10 km+ - 070° 070° 5 kt METAR LIBD 130650Z 07005KT 040V100 CAVOK 33/15 Q1010
08:20
V
33 °C 10 km+ - 050° 050° 4 kt METAR LIBD 130620Z 05004KT 360V080 CAVOK 33/14 Q1010
07:50
V
31 °C 10 km+ - Var Var 1 kt METAR LIBD 130550Z VRB01KT CAVOK 31/15 Q1010
07:20
V
29 °C 10 km+ - 210° 210° 3 kt METAR LIBD 130520Z 21003KT CAVOK 29/15 Q1009
06:50
V
27 °C 10 km+ - 200° 200° 2 kt METAR LIBD 130450Z 20002KT CAVOK 27/16 Q1009
06:20
V
25 °C 10 km+ - 210° 210° 3 kt METAR LIBD 130420Z 21003KT CAVOK 25/16 Q1009
05:50
V
25 °C 10 km+ - 220° 220° 5 kt METAR LIBD 130350Z 22005KT CAVOK 25/16 Q1009
05:20
V
25 °C 10 km+ - 220° 220° 4 kt METAR LIBD 130320Z 22004KT CAVOK 25/16 Q1009
04:50
V
25 °C 10 km+ - 210° 210° 6 kt METAR LIBD 130250Z 21006KT CAVOK 25/16 Q1009
04:20
V
25 °C 10 km+ - 200° 200° 6 kt METAR LIBD 130220Z 20006KT CAVOK 25/16 Q1009
03:50
V
25 °C 10 km+ - 200° 200° 4 kt METAR LIBD 130150Z 20004KT CAVOK 25/16 Q1009
03:20
V
25 °C 10 km+ - 220° 220° 4 kt METAR LIBD 130120Z 22004KT CAVOK 25/16 Q1009
02:50
V
25 °C 10 km+ - 220° 220° 5 kt METAR LIBD 130050Z 22005KT CAVOK 25/16 Q1009
02:20
V
25 °C 10 km+ - 220° 220° 5 kt METAR LIBD 130020Z 22005KT CAVOK 25/16 Q1009
01:50
V
25 °C 10 km+ - 220° 220° 4 kt METAR LIBD 122350Z 22004KT CAVOK 25/17 Q1009
01:20
V
26 °C 10 km+ - 210° 210° 3 kt METAR LIBD 122320Z 21003KT 170V250 CAVOK 26/20 Q1009
00:50
V
27 °C 10 km+ - Var Var 2 kt METAR LIBD 122250Z VRB02KT CAVOK 27/20 Q1010
00:20
V
27 °C 10 km+ - Var Var 2 kt METAR LIBD 122220Z VRB02KT CAVOK 27/19 Q1010

12 lipca 2024

Czas Kod Pogoda Temp. Widoczność Sufit Wiatr METAR/SPECI
23:50
V
28 °C 10 km+ - 220° 220° 2 kt METAR LIBD 122150Z 22002KT CAVOK 28/15 Q1009
23:20
V
28 °C 10 km+ - 230° 230° 3 kt METAR LIBD 122120Z 23003KT 200V260 CAVOK 28/16 Q1009
22:50
V
28 °C 10 km+ - 220° 220° 3 kt METAR LIBD 122050Z 22003KT CAVOK 28/20 Q1009
22:20
V
28 °C 10 km+ - Var Var 2 kt METAR LIBD 122020Z VRB02KT CAVOK 28/21 Q1009
21:50
V
28 °C 10 km+ - 050° 050° 1 kt METAR LIBD 121950Z 05001KT CAVOK 28/20 Q1009
21:20
V
29 °C 10 km+ - Var Var 2 kt METAR LIBD 121920Z VRB02KT CAVOK 29/21 Q1009
20:50
V
30 °C 10 km+ - 050° 050° 3 kt METAR LIBD 121850Z 05003KT CAVOK 30/21 Q1009
20:20
V
31 °C 10 km+ - 060° 060° 4 kt METAR LIBD 121820Z 06004KT CAVOK 31/20 Q1009
19:50
V
31 °C 10 km+ - 060° 060° 4 kt METAR LIBD 121750Z 06004KT CAVOK 31/20 Q1009
19:20
V
32 °C 10 km+ - 060° 060° 6 kt METAR LIBD 121720Z 06006KT CAVOK 32/20 Q1009
18:50
V
32 °C 10 km+ - 070° 070° 7 kt METAR LIBD 121650Z 07007KT CAVOK 32/19 Q1009
18:20
V
33 °C 10 km+ - 070° 070° 9 kt METAR LIBD 121620Z 07009KT CAVOK 33/18 Q1010
17:50
V
33 °C 10 km+ - 060° 060° 8 kt METAR LIBD 121550Z 06008KT CAVOK 33/18 Q1010
17:20
V
33 °C 10 km+ - 070° 070° 7 kt METAR LIBD 121520Z 07007KT 030V090 CAVOK 33/17 Q1010
16:50
V
33 °C 10 km+ - 070° 070° 9 kt METAR LIBD 121450Z 07009KT 040V100 CAVOK 33/17 Q1010
16:20
V
33 °C 10 km+ - 080° 080° 10 kt METAR LIBD 121420Z 08010KT CAVOK 33/17 Q1010
15:50
V
33 °C 10 km+ - 070° 070° 11 kt METAR LIBD 121350Z 07011KT CAVOK 33/17 Q1010
15:20
V
33 °C 10 km+ - 070° 070° 10 kt METAR LIBD 121320Z 07010KT CAVOK 33/17 Q1011
14:50
V
34 °C 10 km+ - 060° 060° 8 kt METAR LIBD 121250Z 06008KT CAVOK 34/17 Q1011
14:20
V
34 °C 10 km+ - 060° 060° 8 kt METAR LIBD 121220Z 06008KT 360V090 CAVOK 34/17 Q1011
13:50
V
34 °C 10 km+ - 050° 050° 8 kt METAR LIBD 121150Z 05008KT 020V080 CAVOK 34/15 Q1011
13:20
V
34 °C 10 km+ - 060° 060° 7 kt METAR LIBD 121120Z 06007KT 010V090 CAVOK 34/16 Q1011
12:50
V
34 °C 10 km+ - 050° 050° 7 kt METAR LIBD 121050Z 05007KT 010V080 CAVOK 34/17 Q1012
12:20
V
35 °C 10 km+ - 050° 050° 6 kt METAR LIBD 121020Z 05006KT 350V080 CAVOK 35/17 Q1012
11:50
V
33 °C 10 km+ - 050° 050° 6 kt METAR LIBD 120950Z 05006KT 360V080 CAVOK 33/16 Q1012
11:20
V
33 °C 10 km+ - 360° 360° 5 kt METAR LIBD 120920Z 36005KT 320V040 CAVOK 33/18 Q1012
10:50
V
33 °C 10 km+ - 020° 020° 5 kt METAR LIBD 120850Z 02005KT 320V100 CAVOK 33/17 Q1012
10:20
V
32 °C 10 km+ - 340° 340° 7 kt METAR LIBD 120820Z 34007KT 280V010 CAVOK 32/18 Q1012
09:50
V
32 °C 10 km+ - 330° 330° 6 kt METAR LIBD 120750Z 33006KT 290V020 CAVOK 32/18 Q1012
09:20
V
31 °C 10 km+ - Var Var 3 kt METAR LIBD 120720Z VRB03KT CAVOK 31/18 Q1012
08:50
V
31 °C 10 km+ - 310° 310° 3 kt METAR LIBD 120650Z 31003KT 230V020 CAVOK 31/18 Q1013
08:20
V
30 °C 10 km+ - 320° 320° 3 kt METAR LIBD 120620Z 32003KT 230V010 CAVOK 30/18 Q1013
07:50
V
30 °C 10 km+ - Var Var 2 kt METAR LIBD 120550Z VRB02KT CAVOK 30/18 Q1012
Zgłoś zmianę